Time;durP1;ratioP1;P1;durP2;ratioP2;P2;SDS_P1;SDS_P2;PMS_P1;PMS_P2;Temp;Humidity;BMP_temperature;BMP_pressure;BME280_temperature;BME280_humidity;BME280_pressure;Samples;Min_cycle;Max_cycle;Signal;HPM_P1;HPM_P2
2023/03/15 00:00:11;;;;;;;11.25;2.30;;;3.10;99.90;;;;;;4902203;28;20447;-76
2023/03/15 00:02:37;;;;;;;14.80;2.75;;;2.80;99.90;;;;;;4906667;28;20437;-75
2023/03/15 00:05:03;;;;;;;11.73;2.72;;;2.80;99.90;;;;;;4908811;28;20452;-76
2023/03/15 00:07:30;;;;;;;15.73;2.65;;;2.80;99.90;;;;;;4908473;28;20426;-75
2023/03/15 00:09:55;;;;;;;9.90;2.40;;;2.80;99.90;;;;;;4909096;28;20447;-76
2023/03/15 00:12:24;;;;;;;12.57;2.57;;;3.00;99.90;;;;;;4906776;28;20895;-75
2023/03/15 00:14:50;;;;;;;11.60;1.93;;;3.00;99.90;;;;;;4913892;28;20439;-76
2023/03/15 00:17:16;;;;;;;10.63;1.90;;;3.00;99.90;;;;;;4910706;28;20441;-75
2023/03/15 00:19:42;;;;;;;11.00;3.22;;;3.00;99.90;;;;;;4919009;28;20568;-75
2023/03/15 00:22:08;;;;;;;10.07;2.43;;;3.00;99.90;;;;;;4913902;28;20908;-76
2023/03/15 00:24:34;;;;;;;7.72;2.63;;;2.90;99.90;;;;;;4911474;28;20438;-75
2023/03/15 00:26:59;;;;;;;9.30;1.90;;;3.00;99.90;;;;;;4906926;28;20431;-76
2023/03/15 00:29:25;;;;;;;11.43;2.00;;;2.90;99.90;;;;;;4905879;28;20514;-76
2023/03/15 00:31:51;;;;;;;8.82;2.17;;;2.80;99.90;;;;;;4902952;28;20433;-76
2023/03/15 00:34:17;;;;;;;6.63;1.30;;;2.80;99.90;;;;;;4905029;28;20433;-75
2023/03/15 00:36:44;;;;;;;11.32;1.95;;;2.80;99.90;;;;;;4903538;28;20931;-75
2023/03/15 00:39:10;;;;;;;9.82;1.98;;;2.80;99.90;;;;;;4904234;28;20429;-75
2023/03/15 00:41:36;;;;;;;7.47;1.20;;;2.70;99.90;;;;;;4902239;28;20421;-75
2023/03/15 00:44:03;;;;;;;9.77;1.42;;;2.80;99.90;;;;;;4902563;28;20449;-74
2023/03/15 00:46:29;;;;;;;10.20;1.83;;;2.80;99.90;;;;;;4901029;28;20439;-74
2023/03/15 00:48:54;;;;;;;10.07;1.77;;;2.70;99.90;;;;;;4901921;28;20927;-75
2023/03/15 00:51:22;;;;;;;13.00;1.77;;;2.60;99.90;;;;;;4904272;28;20451;-74
2023/03/15 00:53:50;;;;;;;8.02;2.22;;;2.60;99.90;;;;;;4902466;28;20454;-75
2023/03/15 00:56:21;;;;;;;12.98;2.95;;;2.60;99.90;;;;;;4901332;28;20445;-75
2023/03/15 00:58:47;;;;;;;8.43;1.47;;;2.60;99.90;;;;;;4906236;28;21087;-76
2023/03/15 01:01:19;;;;;;;12.77;2.80;;;2.50;99.90;;;;;;4899910;28;20437;-76
2023/03/15 01:03:46;;;;;;;12.83;2.73;;;2.50;99.90;;;;;;4906431;28;20525;-75
2023/03/15 01:06:31;;;;;;;8.45;1.65;;;2.50;99.90;;;;;;4898754;28;20450;-74
2023/03/15 01:08:57;;;;;;;6.63;1.50;;;2.40;99.90;;;;;;4903911;28;20532;-75
2023/03/15 01:11:26;;;;;;;9.68;1.27;;;2.40;99.90;;;;;;4907616;28;20439;-75
2023/03/15 01:13:55;;;;;;;7.35;1.67;;;2.40;99.90;;;;;;4905721;28;20935;-76
2023/03/15 01:16:21;;;;;;;10.23;2.05;;;2.50;99.90;;;;;;4915553;28;20433;-76
2023/03/15 01:18:47;;;;;;;8.95;1.73;;;2.50;99.90;;;;;;4908609;29;20442;-75
2023/03/15 01:21:14;;;;;;;6.18;1.60;;;2.40;99.90;;;;;;4908601;28;20495;-76
2023/03/15 01:23:40;;;;;;;8.55;1.55;;;2.50;99.90;;;;;;4892892;28;20520;-76
2023/03/15 01:26:09;;;;;;;8.57;1.42;;;2.50;99.90;;;;;;4910726;28;20452;-74
2023/03/15 01:28:35;;;;;;;7.78;1.38;;;2.40;99.90;;;;;;4905895;28;20437;-75
2023/03/15 01:31:01;;;;;;;8.90;2.30;;;2.50;99.90;;;;;;4905129;28;20441;-75
2023/03/15 01:33:27;;;;;;;9.23;2.10;;;2.40;99.90;;;;;;4923740;29;20465;-74
2023/03/15 01:36:06;;;;;;;7.88;1.85;;;2.50;99.90;;;;;;4906516;28;20532;-76
2023/03/15 01:38:33;;;;;;;8.05;1.23;;;2.40;99.90;;;;;;4901372;28;20445;-75
2023/03/15 01:40:59;;;;;;;11.93;2.00;;;2.50;99.90;;;;;;4886430;28;20441;-76
2023/03/15 01:43:27;;;;;;;9.57;1.83;;;2.60;99.90;;;;;;4903024;28;20440;-75
2023/03/15 01:46:02;;;;;;;8.05;2.05;;;2.60;99.90;;;;;;4890701;28;20572;-75
2023/03/15 01:48:38;;;;;;;11.30;2.22;;;2.60;99.90;;;;;;4906916;28;20821;-75
2023/03/15 01:51:11;;;;;;;7.82;2.00;;;2.60;99.90;;;;;;4900743;28;20472;-71
2023/03/15 01:53:38;;;;;;;11.15;1.75;;;2.50;99.90;;;;;;4894390;28;20429;-76
2023/03/15 01:56:06;;;;;;;8.40;1.60;;;2.40;99.90;;;;;;4900888;28;20511;-75
2023/03/15 01:58:33;;;;;;;7.57;1.65;;;2.50;99.90;;;;;;4899935;28;20444;-75
2023/03/15 02:01:00;;;;;;;8.05;1.40;;;2.40;99.90;;;;;;4899213;28;20453;-76
2023/03/15 02:03:35;;;;;;;7.72;1.30;;;2.40;99.90;;;;;;4900614;28;20433;-76
2023/03/15 02:08:53;;;;;;;5.80;1.70;;;2.30;99.90;;;;;;4997804;23;20448;-68
2023/03/15 02:11:22;;;;;;;9.87;1.67;;;2.30;99.90;;;;;;5003304;28;20451;-68
2023/03/15 02:13:48;;;;;;;7.07;1.30;;;2.20;99.90;;;;;;5001200;28;20486;-71
2023/03/15 02:16:16;;;;;;;9.07;2.10;;;2.20;99.90;;;;;;4983335;28;20504;-68
2023/03/15 02:18:42;;;;;;;7.10;0.93;;;2.20;99.90;;;;;;5004222;28;20913;-69
2023/03/15 02:22:05;;;;;;;5.35;0.90;;;2.10;99.90;;;;;;4998237;28;20458;-69
2023/03/15 02:24:37;;;;;;;10.02;1.77;;;2.10;99.90;;;;;;4955109;28;20466;-70
2023/03/15 02:27:03;;;;;;;7.25;1.23;;;2.10;99.90;;;;;;4994069;28;20437;-69
2023/03/15 02:29:29;;;;;;;7.40;1.02;;;2.10;99.90;;;;;;5002326;28;20513;-69
2023/03/15 02:31:56;;;;;;;8.48;1.10;;;2.00;99.90;;;;;;5002346;28;20912;-68
2023/03/15 02:34:24;;;;;;;8.18;1.17;;;2.10;99.90;;;;;;5002657;28;20429;-68
2023/03/15 02:36:50;;;;;;;5.85;1.05;;;2.00;99.90;;;;;;4998840;28;20417;-69
2023/03/15 02:39:21;;;;;;;8.57;1.85;;;2.00;99.90;;;;;;5004042;28;20907;-68
2023/03/15 02:41:53;;;;;;;7.97;2.03;;;1.90;99.90;;;;;;5002288;28;20507;-69
2023/03/15 02:44:25;;;;;;;6.30;1.45;;;1.90;99.90;;;;;;5001299;28;20435;-69
2023/03/15 02:46:56;;;;;;;9.33;1.87;;;1.90;99.90;;;;;;5000437;28;20428;-68
2023/03/15 02:49:25;;;;;;;6.25;1.10;;;1.90;99.90;;;;;;5001745;28;21002;-70
2023/03/15 02:51:51;;;;;;;7.05;2.13;;;1.90;99.90;;;;;;5005284;28;20784;-68
2023/03/15 02:54:17;;;;;;;4.13;1.30;;;1.80;99.90;;;;;;5002629;28;20420;-69
2023/03/15 02:56:42;;;;;;;6.40;1.03;;;1.70;99.90;;;;;;4997139;28;20510;-69
2023/03/15 02:59:08;;;;;;;7.70;1.08;;;1.70;99.90;;;;;;5002101;28;20429;-69
2023/03/15 03:01:35;;;;;;;6.00;1.52;;;1.60;99.90;;;;;;4997994;28;20440;-70
2023/03/15 03:04:02;;;;;;;8.83;1.67;;;1.60;99.90;;;;;;4999254;28;20516;-67
2023/03/15 03:06:28;;;;;;;6.97;1.65;;;1.60;99.90;;;;;;5002433;28;20428;-68
2023/03/15 03:08:53;;;;;;;6.80;1.40;;;1.70;99.90;;;;;;5002733;28;20424;-68
2023/03/15 03:11:19;;;;;;;9.60;1.40;;;1.70;99.90;;;;;;4999840;28;20441;-68
2023/03/15 03:13:45;;;;;;;7.53;1.38;;;1.70;99.90;;;;;;5004645;28;21009;-68
2023/03/15 03:16:10;;;;;;;9.48;1.50;;;1.60;99.90;;;;;;4990812;28;20468;-69
2023/03/15 03:18:37;;;;;;;6.38;1.45;;;1.70;99.90;;;;;;5004926;28;20430;-69
2023/03/15 03:21:05;;;;;;;8.67;2.03;;;1.70;99.90;;;;;;5004102;28;20424;-68
2023/03/15 03:23:33;;;;;;;7.35;1.58;;;1.70;99.90;;;;;;5003406;28;20420;-68
2023/03/15 03:25:59;;;;;;;7.40;1.13;;;1.80;99.90;;;;;;5002310;28;20444;-68
2023/03/15 03:28:26;;;;;;;7.30;1.25;;;1.90;99.90;;;;;;5004831;28;20431;-69
2023/03/15 03:30:53;;;;;;;6.95;1.40;;;1.90;99.90;;;;;;4998092;28;20442;-68
2023/03/15 03:33:20;;;;;;;8.75;1.65;;;2.00;99.90;;;;;;5007901;28;20489;-67
2023/03/15 03:35:45;;;;;;;9.68;1.88;;;2.00;99.90;;;;;;5003977;28;20520;-68
2023/03/15 03:38:11;;;;;;;7.15;1.88;;;2.10;99.90;;;;;;5000434;28;20541;-68
2023/03/15 03:40:38;;;;;;;9.70;2.10;;;2.10;99.90;;;;;;4997170;28;20486;-68
2023/03/15 03:43:05;;;;;;;9.63;1.25;;;2.10;99.90;;;;;;5000610;28;20432;-68
2023/03/15 03:45:30;;;;;;;9.10;1.98;;;2.00;99.90;;;;;;4998300;28;20456;-69
2023/03/15 03:47:56;;;;;;;6.57;1.33;;;2.00;99.90;;;;;;4983729;28;20523;-67
2023/03/15 03:50:22;;;;;;;6.63;1.63;;;2.00;99.90;;;;;;4997719;28;20441;-68
2023/03/15 03:52:47;;;;;;;8.70;1.80;;;1.90;99.90;;;;;;4999048;28;20515;-70
2023/03/15 03:55:13;;;;;;;7.10;1.58;;;1.90;99.90;;;;;;4998043;28;20455;-68
2023/03/15 03:57:40;;;;;;;8.05;2.10;;;1.90;99.90;;;;;;4999408;28;20454;-68
2023/03/15 04:00:08;;;;;;;6.78;1.75;;;2.00;99.90;;;;;;5000383;28;20543;-70
2023/03/15 04:02:34;;;;;;;7.00;1.30;;;1.90;99.90;;;;;;4999761;28;20425;-68
2023/03/15 04:05:00;;;;;;;12.10;2.23;;;1.90;99.90;;;;;;4994555;28;20454;-66
2023/03/15 04:07:26;;;;;;;10.32;2.00;;;1.90;99.90;;;;;;4993552;28;20425;-67
2023/03/15 04:09:52;;;;;;;9.80;1.35;;;2.00;99.90;;;;;;4999488;28;20777;-68
2023/03/15 04:12:18;;;;;;;12.00;2.78;;;2.00;99.90;;;;;;4994257;28;20457;-70
2023/03/15 04:14:43;;;;;;;5.50;1.00;;;1.90;99.90;;;;;;5001887;28;20425;-68
2023/03/15 04:17:09;;;;;;;6.17;1.87;;;2.00;99.90;;;;;;4999596;28;20438;-67
2023/03/15 04:19:35;;;;;;;5.57;1.42;;;1.90;99.90;;;;;;4998790;28;20408;-68
2023/03/15 04:22:05;;;;;;;5.00;0.90;;;1.80;99.90;;;;;;4999130;28;20426;-67
2023/03/15 04:24:33;;;;;;;5.07;1.00;;;1.80;99.90;;;;;;5006427;28;20479;-69
2023/03/15 04:26:59;;;;;;;4.03;1.00;;;1.80;99.90;;;;;;5003789;28;20431;-69
2023/03/15 04:29:24;;;;;;;8.55;2.10;;;1.70;99.90;;;;;;5005867;28;20440;-67
2023/03/15 04:31:50;;;;;;;8.18;1.40;;;1.70;99.90;;;;;;4998487;28;20959;-67
2023/03/15 04:34:16;;;;;;;9.73;1.80;;;1.70;99.90;;;;;;4997763;28;20428;-68
2023/03/15 04:36:41;;;;;;;8.17;2.03;;;1.70;99.90;;;;;;5003221;28;20507;-69
2023/03/15 04:39:08;;;;;;;7.03;1.53;;;1.60;99.90;;;;;;5002359;28;20440;-68
2023/03/15 04:41:34;;;;;;;8.87;2.07;;;1.60;99.90;;;;;;4996350;28;20535;-69
2023/03/15 04:44:04;;;;;;;7.18;1.45;;;1.60;99.90;;;;;;5000444;28;20420;-68
2023/03/15 04:46:33;;;;;;;12.63;2.05;;;1.60;99.90;;;;;;4999918;28;20462;-67
2023/03/15 04:48:59;;;;;;;6.43;1.80;;;1.60;99.90;;;;;;5001419;28;20543;-69
2023/03/15 04:51:25;;;;;;;15.10;2.17;;;1.50;99.90;;;;;;5004959;28;20432;-68
2023/03/15 04:53:51;;;;;;;8.83;1.60;;;1.40;99.90;;;;;;5005631;28;20416;-67
2023/03/15 04:56:16;;;;;;;8.93;2.50;;;1.50;99.90;;;;;;4997074;28;20429;-68
2023/03/15 04:58:42;;;;;;;9.47;2.47;;;1.40;99.90;;;;;;5005808;28;20436;-68
2023/03/15 05:01:08;;;;;;;6.80;1.60;;;1.30;99.90;;;;;;4999182;28;20464;-69
2023/03/15 05:03:33;;;;;;;11.10;1.97;;;1.40;99.90;;;;;;5007802;28;20914;-68
2023/03/15 05:06:06;;;;;;;7.13;1.73;;;1.40;99.90;;;;;;5003247;28;20941;-69
2023/03/15 05:08:36;;;;;;;8.25;1.65;;;1.30;99.90;;;;;;5000764;28;20420;-70
2023/03/15 05:11:03;;;;;;;10.00;2.00;;;1.20;99.90;;;;;;4996587;28;20446;-66
2023/03/15 05:13:29;;;;;;;7.77;1.33;;;1.20;99.90;;;;;;5001327;28;20419;-67
2023/03/15 05:15:55;;;;;;;12.40;2.35;;;1.20;99.90;;;;;;4999842;28;20420;-68
2023/03/15 05:18:20;;;;;;;9.35;1.92;;;1.20;99.90;;;;;;5004447;28;20429;-67
2023/03/15 05:20:46;;;;;;;8.60;2.45;;;1.10;99.90;;;;;;5000112;28;20819;-68
2023/03/15 05:23:12;;;;;;;5.60;1.63;;;1.10;99.90;;;;;;5004991;28;20432;-68
2023/03/15 05:25:38;;;;;;;9.32;1.67;;;1.20;99.90;;;;;;4999643;28;20782;-67
2023/03/15 05:28:04;;;;;;;6.05;1.17;;;1.10;99.90;;;;;;4988953;28;20970;-68
2023/03/15 05:30:31;;;;;;;8.45;1.63;;;1.10;99.90;;;;;;4994728;28;20442;-67
2023/03/15 05:32:57;;;;;;;5.38;1.40;;;1.20;99.90;;;;;;4982846;28;20426;-68
2023/03/15 05:35:25;;;;;;;7.60;1.95;;;1.10;99.90;;;;;;4998982;28;20432;-68
2023/03/15 05:38:00;;;;;;;5.82;1.55;;;1.20;99.90;;;;;;4995736;28;20439;-69
2023/03/15 05:40:28;;;;;;;9.10;1.25;;;1.20;99.90;;;;;;4996720;28;20428;-69
2023/03/15 05:42:55;;;;;;;5.93;0.90;;;1.10;99.90;;;;;;4995352;28;20437;-68
2023/03/15 05:45:21;;;;;;;5.20;1.20;;;1.20;99.90;;;;;;5000640;28;20436;-69
2023/03/15 05:47:46;;;;;;;4.30;0.88;;;1.10;99.90;;;;;;4994661;28;20479;-67
2023/03/15 05:50:12;;;;;;;7.00;1.10;;;1.20;99.90;;;;;;4995496;28;20432;-68
2023/03/15 05:52:38;;;;;;;7.23;2.00;;;1.20;99.90;;;;;;4994247;28;20466;-68
2023/03/15 05:55:04;;;;;;;9.50;1.50;;;1.10;99.90;;;;;;4993001;28;21133;-67
2023/03/15 05:57:30;;;;;;;6.07;1.10;;;1.20;99.90;;;;;;4995214;28;20469;-67
2023/03/15 05:59:55;;;;;;;7.72;1.23;;;1.10;99.90;;;;;;5012852;28;20454;-67
2023/03/15 06:02:21;;;;;;;8.40;1.40;;;1.20;99.90;;;;;;4997211;28;20818;-68
2023/03/15 06:04:47;;;;;;;4.55;1.20;;;1.20;99.90;;;;;;4998244;28;20436;-68
2023/03/15 06:07:13;;;;;;;7.88;1.17;;;1.20;99.90;;;;;;5003812;28;20787;-67
2023/03/15 06:09:38;;;;;;;8.57;2.22;;;1.20;99.90;;;;;;4997759;28;20432;-68
2023/03/15 06:12:04;;;;;;;7.70;1.83;;;1.20;99.90;;;;;;4999175;28;20514;-67
2023/03/15 06:14:30;;;;;;;9.18;1.25;;;1.10;99.90;;;;;;4990631;28;20420;-68
2023/03/15 06:16:56;;;;;;;9.52;1.80;;;1.10;99.90;;;;;;5003491;28;20429;-67
2023/03/15 06:19:22;;;;;;;7.82;2.08;;;1.20;99.90;;;;;;5003267;28;20787;-69
2023/03/15 06:21:48;;;;;;;8.70;1.97;;;1.20;99.90;;;;;;5001128;28;20451;-69
2023/03/15 06:24:14;;;;;;;6.82;1.45;;;1.20;99.90;;;;;;5005976;28;20420;-68
2023/03/15 06:26:40;;;;;;;5.90;1.42;;;1.30;99.90;;;;;;5002643;28;20464;-67
2023/03/15 06:29:06;;;;;;;7.53;1.47;;;1.20;99.90;;;;;;4993602;28;21138;-68
2023/03/15 06:31:31;;;;;;;14.17;2.17;;;1.40;99.90;;;;;;4999064;28;21165;-68
2023/03/15 06:33:57;;;;;;;7.28;1.52;;;1.40;99.90;;;;;;5002643;28;20420;-68
2023/03/15 06:36:23;;;;;;;7.28;1.17;;;1.40;99.90;;;;;;4999202;28;20432;-68
2023/03/15 06:38:49;;;;;;;9.13;1.97;;;1.40;99.90;;;;;;5005181;28;20567;-69
2023/03/15 06:41:15;;;;;;;13.30;2.72;;;1.40;99.90;;;;;;4998164;28;20451;-67
2023/03/15 06:43:41;;;;;;;9.37;1.57;;;1.40;99.90;;;;;;5001376;28;20420;-68
2023/03/15 06:46:07;;;;;;;8.52;1.90;;;1.50;99.90;;;;;;5002257;28;20930;-68
2023/03/15 06:48:33;;;;;;;8.45;1.40;;;1.60;99.90;;;;;;5007210;28;20958;-68
2023/03/15 06:50:59;;;;;;;10.77;2.22;;;1.50;99.90;;;;;;5001299;28;20998;-68
2023/03/15 06:53:24;;;;;;;7.25;1.85;;;1.60;99.90;;;;;;5006679;28;20785;-68
2023/03/15 06:55:51;;;;;;;7.77;1.90;;;1.60;99.90;;;;;;4997607;28;20439;-68
2023/03/15 06:58:17;;;;;;;9.05;1.70;;;1.60;99.90;;;;;;5009636;28;20516;-69
2023/03/15 07:00:43;;;;;;;9.93;2.57;;;1.70;99.90;;;;;;4997342;28;20516;-68
2023/03/15 07:03:09;;;;;;;6.63;1.48;;;1.70;99.90;;;;;;5003961;28;20462;-67
2023/03/15 07:05:36;;;;;;;9.80;1.57;;;1.70;99.90;;;;;;5018775;28;20453;-68
2023/03/15 07:08:02;;;;;;;7.32;2.03;;;1.80;99.90;;;;;;4987129;28;20507;-67
2023/03/15 07:10:27;;;;;;;9.18;2.00;;;1.90;99.90;;;;;;5006572;28;20508;-69
2023/03/15 07:12:53;;;;;;;8.35;1.92;;;1.90;99.90;;;;;;4979667;28;20437;-66
2023/03/15 07:15:18;;;;;;;7.80;1.40;;;2.00;99.90;;;;;;4982443;28;20514;-67
2023/03/15 07:17:44;;;;;;;8.40;1.80;;;2.10;99.90;;;;;;4995795;28;20512;-67
2023/03/15 07:20:10;;;;;;;8.13;1.40;;;2.20;99.90;;;;;;5004476;28;20935;-67
2023/03/15 07:22:36;;;;;;;9.55;1.80;;;2.30;99.90;;;;;;5006779;28;20421;-68
2023/03/15 07:25:02;;;;;;;8.80;1.85;;;2.30;99.90;;;;;;5004884;28;20946;-67
2023/03/15 07:27:28;;;;;;;8.88;2.15;;;2.40;99.90;;;;;;5004780;28;20425;-68
2023/03/15 07:29:54;;;;;;;10.02;2.40;;;2.40;99.90;;;;;;5006115;28;20976;-68
2023/03/15 07:32:20;;;;;;;8.67;1.77;;;2.50;99.90;;;;;;5002787;28;20435;-68
2023/03/15 07:34:45;;;;;;;11.57;1.83;;;2.60;99.90;;;;;;4987433;28;20923;-68
2023/03/15 07:37:11;;;;;;;10.07;2.13;;;2.60;99.90;;;;;;4997363;28;20426;-67
2023/03/15 07:39:37;;;;;;;8.87;1.77;;;2.70;99.90;;;;;;4982701;28;20433;-68
2023/03/15 07:42:05;;;;;;;9.83;1.67;;;2.70;99.90;;;;;;5001615;28;20423;-67
2023/03/15 07:44:31;;;;;;;9.48;2.22;;;2.80;99.90;;;;;;4992057;28;20528;-67
2023/03/15 07:46:57;;;;;;;10.15;2.63;;;2.90;99.90;;;;;;5004984;28;20515;-67
2023/03/15 07:49:23;;;;;;;9.00;2.20;;;2.80;99.90;;;;;;5000106;28;21122;-68
2023/03/15 07:51:49;;;;;;;8.60;2.17;;;2.90;99.90;;;;;;4978921;28;20437;-67
2023/03/15 07:54:14;;;;;;;6.50;1.80;;;3.00;99.90;;;;;;4996688;28;20468;-68
2023/03/15 07:56:40;;;;;;;10.33;2.27;;;3.00;99.90;;;;;;4996853;28;20772;-67
2023/03/15 07:59:06;;;;;;;4.80;0.97;;;3.10;99.90;;;;;;4998778;28;20929;-68
2023/03/15 08:01:31;;;;;;;8.23;1.73;;;3.20;99.90;;;;;;4995822;28;20511;-68
2023/03/15 08:03:57;;;;;;;7.47;1.52;;;3.30;99.90;;;;;;4996699;28;21157;-68
2023/03/15 08:06:23;;;;;;;6.97;1.92;;;3.50;99.90;;;;;;4999228;28;20441;-69
2023/03/15 08:08:50;;;;;;;5.70;1.35;;;3.40;99.90;;;;;;4998937;28;20444;-70
2023/03/15 08:11:15;;;;;;;7.10;1.20;;;3.60;99.90;;;;;;4996926;28;20527;-68
2023/03/15 08:13:41;;;;;;;7.70;1.92;;;3.70;99.90;;;;;;4996287;28;20431;-67
2023/03/15 08:16:07;;;;;;;7.30;1.67;;;3.70;99.90;;;;;;4999453;28;21310;-68
2023/03/15 08:18:32;;;;;;;6.33;1.43;;;3.70;99.90;;;;;;4999400;28;20544;-69
2023/03/15 08:20:58;;;;;;;10.07;1.83;;;3.80;99.90;;;;;;5001197;28;20421;-69
2023/03/15 08:23:24;;;;;;;7.27;1.13;;;3.90;99.90;;;;;;4992009;28;20445;-69
2023/03/15 08:25:50;;;;;;;5.78;1.23;;;3.90;99.90;;;;;;4997597;28;20473;-69
2023/03/15 08:28:16;;;;;;;7.32;1.55;;;4.00;99.90;;;;;;5000702;28;20443;-68
2023/03/15 08:30:42;;;;;;;8.18;1.20;;;4.10;99.90;;;;;;4996790;28;20449;-69
2023/03/15 08:33:08;;;;;;;5.15;1.55;;;4.30;99.90;;;;;;4996138;28;20424;-68
2023/03/15 08:35:33;;;;;;;8.27;2.03;;;4.30;99.90;;;;;;4998319;28;20440;-68
2023/03/15 08:38:01;;;;;;;8.50;1.50;;;4.20;99.90;;;;;;4996659;28;20408;-67
2023/03/15 08:40:28;;;;;;;3.80;0.90;;;4.40;99.90;;;;;;4995344;28;20460;-68
2023/03/15 08:42:54;;;;;;;8.60;1.52;;;4.20;99.90;;;;;;4996582;28;20423;-69
2023/03/15 08:45:22;;;;;;;7.22;2.22;;;4.40;99.90;;;;;;4998169;28;21054;-68
2023/03/15 08:47:49;;;;;;;8.00;2.05;;;4.50;99.90;;;;;;4982198;28;20431;-69
2023/03/15 08:50:16;;;;;;;6.53;1.30;;;4.60;99.90;;;;;;4992958;28;20438;-69
2023/03/15 08:52:42;;;;;;;6.05;1.17;;;4.70;99.90;;;;;;4995611;28;20946;-67
2023/03/15 08:55:09;;;;;;;6.00;1.00;;;4.70;99.90;;;;;;4993565;28;20449;-67
2023/03/15 08:57:35;;;;;;;5.28;1.17;;;4.80;99.90;;;;;;4994865;28;20870;-67
2023/03/15 09:00:16;;;;;;;5.40;1.38;;;4.90;99.90;;;;;;4998595;28;21148;-66
2023/03/15 09:02:41;;;;;;;6.60;1.57;;;4.90;99.90;;;;;;4993215;28;20430;-70
2023/03/15 09:05:10;;;;;;;4.75;1.13;;;5.00;99.90;;;;;;4997145;28;20499;-69
2023/03/15 09:07:38;;;;;;;9.50;1.45;;;5.00;99.90;;;;;;5001785;28;20520;-68
2023/03/15 09:10:04;;;;;;;5.47;1.20;;;5.00;99.90;;;;;;4992383;28;20469;-68
2023/03/15 09:12:30;;;;;;;7.45;1.35;;;5.10;99.90;;;;;;4997448;28;20429;-68
2023/03/15 09:14:56;;;;;;;5.47;1.43;;;5.00;99.90;;;;;;5001100;28;20432;-68
2023/03/15 09:17:21;;;;;;;5.53;1.47;;;5.20;99.90;;;;;;4997689;28;20468;-68
2023/03/15 09:19:47;;;;;;;5.40;1.55;;;5.20;99.90;;;;;;4996302;28;20421;-69
2023/03/15 09:22:13;;;;;;;5.93;1.50;;;5.20;99.90;;;;;;4994355;28;20452;-67
2023/03/15 09:24:39;;;;;;;6.07;1.60;;;5.20;99.90;;;;;;4987299;28;20425;-67
2023/03/15 09:27:05;;;;;;;5.45;2.13;;;5.30;99.90;;;;;;4988516;28;20447;-68
2023/03/15 09:29:30;;;;;;;7.23;1.23;;;5.40;99.90;;;;;;5006504;28;20420;-68
2023/03/15 09:31:56;;;;;;;8.67;2.03;;;5.50;99.90;;;;;;5004330;28;20519;-68
2023/03/15 09:34:22;;;;;;;7.50;1.70;;;5.50;99.90;;;;;;4989039;28;20417;-68
2023/03/15 09:36:51;;;;;;;7.28;1.23;;;5.60;99.90;;;;;;4989782;28;20411;-70
2023/03/15 09:39:19;;;;;;;8.18;1.88;;;5.70;99.90;;;;;;4997048;28;20421;-68
2023/03/15 09:41:54;;;;;;;12.02;2.75;;;5.60;99.90;;;;;;5006282;28;20432;-69
2023/03/15 09:44:40;;;;;;;5.82;1.50;;;5.80;99.90;;;;;;5005963;28;20432;-69
2023/03/15 09:47:20;;;;;;;7.03;2.03;;;5.90;99.90;;;;;;5004825;28;20428;-68
2023/03/15 09:49:54;;;;;;;13.77;2.08;;;5.60;99.90;;;;;;5000658;28;20471;-68
2023/03/15 09:52:45;;;;;;;6.10;1.50;;;5.80;99.90;;;;;;4991795;28;20455;-68
2023/03/15 09:55:24;;;;;;;7.40;1.77;;;5.90;99.90;;;;;;5000860;28;20475;-69
2023/03/15 09:58:04;;;;;;;11.32;2.80;;;6.00;99.90;;;;;;5005227;28;20440;-67
2023/03/15 10:00:37;;;;;;;11.43;2.33;;;6.10;99.90;;;;;;4996747;28;20961;-67
2023/03/15 10:03:08;;;;;;;9.55;2.00;;;6.30;99.90;;;;;;4993304;28;20428;-68
2023/03/15 10:05:42;;;;;;;7.27;2.23;;;6.20;99.90;;;;;;4990920;28;20437;-68
2023/03/15 10:08:14;;;;;;;11.45;2.25;;;6.30;99.90;;;;;;5002250;28;20436;-68
2023/03/15 10:10:55;;;;;;;9.73;2.00;;;6.50;99.90;;;;;;4996461;28;20442;-68
2023/03/15 10:13:41;;;;;;;7.60;1.95;;;6.70;99.90;;;;;;4997730;28;20464;-69
2023/03/15 10:16:28;;;;;;;10.93;1.77;;;7.00;99.90;;;;;;4992269;28;20444;-68
2023/03/15 10:19:32;;;;;;;7.03;2.00;;;7.00;99.90;;;;;;4992638;28;20597;-69
2023/03/15 10:22:20;;;;;;;8.73;1.83;;;6.60;99.90;;;;;;4989376;28;20444;-68
2023/03/15 10:24:50;;;;;;;8.25;1.42;;;6.70;99.90;;;;;;4994938;28;20491;-67
2023/03/15 10:27:39;;;;;;;5.47;1.60;;;6.70;99.90;;;;;;4992796;28;20444;-67
2023/03/15 10:30:16;;;;;;;7.50;1.85;;;6.70;99.90;;;;;;4994768;28;20417;-67
2023/03/15 10:32:44;;;;;;;9.48;1.80;;;7.00;99.90;;;;;;4997106;28;20529;-66
2023/03/15 10:35:14;;;;;;;10.23;1.67;;;7.10;99.90;;;;;;4995621;28;20437;-65
2023/03/15 10:37:41;;;;;;;9.27;1.77;;;7.40;99.90;;;;;;4999002;28;20512;-66
2023/03/15 10:40:14;;;;;;;6.28;1.75;;;7.30;99.90;;;;;;4992654;28;20436;-67
2023/03/15 10:42:40;;;;;;;6.82;1.55;;;7.20;99.90;;;;;;4994731;28;20432;-66
2023/03/15 10:45:22;;;;;;;8.52;2.60;;;7.30;99.90;;;;;;4995557;28;20442;-67
2023/03/15 10:47:49;;;;;;;7.72;1.98;;;7.20;99.90;;;;;;4991346;28;20431;-68
2023/03/15 10:50:26;;;;;;;7.55;1.55;;;7.00;99.90;;;;;;4998216;28;20824;-67
2023/03/15 10:52:57;;;;;;;10.27;2.67;;;7.00;99.90;;;;;;5004570;28;20420;-69
2023/03/15 10:55:42;;;;;;;6.15;1.80;;;7.20;99.90;;;;;;5000805;28;20483;-67
2023/03/15 10:58:20;;;;;;;4.45;1.55;;;7.00;99.90;;;;;;4996278;28;20507;-67
2023/03/15 11:01:06;;;;;;;12.82;2.28;;;7.10;99.90;;;;;;4997391;28;20964;-68
2023/03/15 11:03:33;;;;;;;9.10;1.85;;;7.30;99.90;;;;;;4999778;28;20507;-67
2023/03/15 11:05:59;;;;;;;7.45;1.73;;;7.20;99.90;;;;;;5002525;28;20925;-67
2023/03/15 11:08:38;;;;;;;6.77;2.03;;;7.40;99.90;;;;;;5002160;28;20424;-68
2023/03/15 11:11:04;;;;;;;6.95;1.50;;;7.20;99.90;;;;;;4992061;28;20789;-68
2023/03/15 11:13:32;;;;;;;8.65;1.40;;;7.40;99.90;;;;;;4989722;28;20430;-67
2023/03/15 11:16:06;;;;;;;10.70;2.80;;;7.10;99.90;;;;;;4999587;28;20435;-68
2023/03/15 11:18:43;;;;;;;9.68;2.58;;;7.10;99.90;;;;;;4990073;28;20415;-68
2023/03/15 11:21:13;;;;;;;8.75;2.22;;;7.30;99.90;;;;;;4992104;28;20424;-66
2023/03/15 11:23:42;;;;;;;7.13;1.50;;;7.40;99.90;;;;;;4991770;28;20426;-67
2023/03/15 11:26:17;;;;;;;9.82;1.67;;;7.50;99.90;;;;;;4987108;28;20831;-67
2023/03/15 11:28:52;;;;;;;6.10;1.70;;;7.70;99.90;;;;;;4998745;28;20531;-66
2023/03/15 11:31:25;;;;;;;6.07;2.10;;;7.60;99.90;;;;;;5004146;28;20447;-69
2023/03/15 11:33:58;;;;;;;5.82;1.40;;;7.70;99.90;;;;;;5006897;28;20749;-67
2023/03/15 11:36:27;;;;;;;8.48;1.63;;;7.50;99.90;;;;;;5006891;28;20436;-67
2023/03/15 11:38:54;;;;;;;7.83;1.53;;;7.40;99.90;;;;;;5007502;28;20501;-67
2023/03/15 11:41:46;;;;;;;6.00;1.70;;;7.10;99.90;;;;;;4992777;28;20429;-67
2023/03/15 11:44:16;;;;;;;8.32;1.90;;;7.10;99.90;;;;;;4989346;28;20449;-67
2023/03/15 11:46:53;;;;;;;7.35;1.65;;;7.20;99.90;;;;;;5000205;28;20436;-67
2023/03/15 11:49:26;;;;;;;8.60;1.88;;;7.40;99.90;;;;;;5006317;28;20490;-68
2023/03/15 11:51:55;;;;;;;6.97;1.63;;;7.40;99.90;;;;;;4996518;28;20433;-67
2023/03/15 11:54:22;;;;;;;6.73;1.87;;;7.30;99.90;;;;;;5007230;28;20630;-66
2023/03/15 11:56:50;;;;;;;9.90;3.08;;;7.50;99.90;;;;;;5004884;28;20433;-68
2023/03/15 11:59:20;;;;;;;10.90;1.88;;;7.70;99.90;;;;;;5006903;28;20927;-68
2023/03/15 12:01:49;;;;;;;7.03;1.63;;;7.70;99.90;;;;;;5005569;28;20509;-67
2023/03/15 12:04:26;;;;;;;8.10;2.10;;;7.80;99.90;;;;;;5003223;28;20808;-67
2023/03/15 12:06:55;;;;;;;7.40;1.40;;;7.60;99.90;;;;;;4977638;28;20441;-67
2023/03/15 12:09:35;;;;;;;5.10;1.20;;;7.70;99.90;;;;;;5004235;28;20444;-67
2023/03/15 12:12:23;;;;;;;7.55;1.98;;;7.60;99.90;;;;;;4999554;28;20425;-69
2023/03/15 12:15:18;;;;;;;7.05;1.50;;;7.80;99.90;;;;;;5002398;28;21208;-69
2023/03/15 12:17:53;;;;;;;8.30;1.70;;;7.70;99.90;;;;;;5005641;28;20447;-69
2023/03/15 12:20:39;;;;;;;8.90;2.25;;;7.80;99.90;;;;;;5005072;28;20428;-69
2023/03/15 12:23:17;;;;;;;7.32;1.75;;;8.00;99.90;;;;;;4989957;28;20434;-68
2023/03/15 12:26:07;;;;;;;8.35;2.15;;;7.80;99.90;;;;;;4986411;28;20967;-67
2023/03/15 12:28:48;;;;;;;7.00;1.63;;;7.60;99.90;;;;;;4989353;28;20915;-67
2023/03/15 12:31:14;;;;;;;10.40;1.45;;;7.80;99.90;;;;;;5002482;28;20417;-68
2023/03/15 12:33:57;;;;;;;12.15;2.67;;;7.80;99.90;;;;;;5008623;28;20454;-68
2023/03/15 12:36:40;;;;;;;6.43;1.77;;;8.00;99.90;;;;;;5008655;28;20412;-67
2023/03/15 12:39:14;;;;;;;11.90;2.20;;;8.20;99.90;;;;;;4994188;28;20923;-68
2023/03/15 12:41:43;;;;;;;7.47;1.40;;;8.20;99.90;;;;;;5005824;28;20456;-68
2023/03/15 12:44:32;;;;;;;7.30;1.95;;;8.50;99.90;;;;;;4989614;28;20438;-67
2023/03/15 12:46:58;;;;;;;8.02;2.20;;;8.20;99.90;;;;;;4987495;28;21024;-67
2023/03/15 12:49:39;;;;;;;8.10;2.10;;;8.30;99.90;;;;;;4986806;28;20485;-67
2023/03/15 12:52:39;;;;;;;7.20;1.75;;;8.40;99.90;;;;;;4987637;28;20452;-67
2023/03/15 12:55:17;;;;;;;7.75;1.85;;;8.60;99.90;;;;;;5007033;28;21013;-68
2023/03/15 12:57:51;;;;;;;9.32;2.13;;;8.70;99.90;;;;;;5005695;28;20432;-69
2023/03/15 13:00:20;;;;;;;6.28;1.50;;;8.40;99.90;;;;;;4987935;28;20423;-68
2023/03/15 13:03:04;;;;;;;6.35;1.20;;;8.50;99.90;;;;;;5006655;28;20436;-68
2023/03/15 13:05:54;;;;;;;8.63;2.13;;;8.40;99.90;;;;;;4983691;28;20778;-68
2023/03/15 13:08:24;;;;;;;7.30;1.77;;;8.20;99.90;;;;;;4985483;28;20494;-68